Date,TemperatureHighF,TemperatureAvgF,TemperatureLowF,DewpointHighF,DewpointAvgF,DewpointLowF,HumidityHigh,HumidityAvg,HumidityLow,PressureMaxIn,PressureMinIn,WindSpeedMaxMPH,WindSpeedAvgMPH,GustSpeedMaxMPH,PrecipitationSumIn
2013-1-1,26,23,20,20,16,12,86,74,63,30.21,30.09,20,4,20,0.00
2013-1-2,27,24,17,23,19,13,86,82,76,30.21,30.13,17,6,21,0.00
2013-1-3,30,25,18,26,21,13,91,84,76,30.22,30.10,18,7,20,0.00
2013-1-4,34,30,26,28,25,22,88,82,76,30.22,30.07,30,11,30,0.00
2013-1-5,36,31,23,32,27,21,96,87,71,30.25,29.99,17,6,18,0.00
2013-1-6,35,34,32,33,31,25,96,89,75,30.30,29.88,20,6,21,0.08
2013-1-7,37,31,26,27,24,19,89,75,52,30.36,30.14,22,8,23,0.00
2013-1-8,38,32,27,30,26,23,87,80,72,30.24,30.10,16,6,16,0.00
2013-1-9,44,39,33,35,32,27,85,75,57,30.44,30.01,36,10,38,0.00
2013-1-10,46,35,26,35,29,24,97,80,51,30.56,30.07,18,5,20,0.07
2013-1-11,52,46,36,52,45,35,99,96,90,30.07,29.72,21,9,22,0.52
2013-1-12,56,49,38,50,43,34,93,80,50,29.95,29.74,25,7,27,0.52
2013-1-13,38,32,25,35,30,21,97,93,82,30.14,29.82,22,6,23,0.22
2013-1-14,25,22,20,21,18,16,91,84,75,30.48,30.14,23,6,23,0.22
2013-1-15,31,24,18,21,19,15,92,82,65,30.49,30.19,10,3,11,0.00
2013-1-16,35,28,21,31,23,17,88,80,62,30.19,29.83,29,8,29,0.00
2013-1-17,35,28,21,30,19,11,83,71,62,30.40,30.01,26,7,26,0.00
2013-1-18,42,29,19,30,20,12,80,69,60,30.46,29.93,30,9,30,0.00
2013-1-19,46,42,39,38,33,23,78,70,51,29.93,29.61,31,13,42,0.00
2013-1-20,39,18,15,24,13,10,89,81,51,30.27,29.62,41,11,45,0.00
2013-1-21,16,11,4,13,8,1,91,89,79,30.26,30.09,25,8,27,0.00
2013-1-22,12,5,-1,9,2,-4,89,87,79,30.41,30.26,19,3,20,0.00
2013-1-23,18,11,4,15,8,1,92,88,85,30.41,30.14,20,4,20,0.00
2013-1-24,18,11,3,8,5,0,92,77,58,30.72,30.28,8,2,8,0.00
2013-1-25,22,18,13,20,13,4,93,82,69,30.55,30.04,15,5,16,0.00
2013-1-26,28,23,20,21,19,17,93,84,67,30.49,30.13,13,2,13,0.00
2013-1-27,33,26,19,31,22,17,94,84,71,30.49,30.06,25,8,26,0.00
2013-1-28,46,38,33,46,37,31,99,95,91,30.07,29.86,20,6,22,0.33
2013-1-29,56,48,34,56,47,32,100,99,93,29.99,29.38,22,8,23,1.23
2013-1-30,52,41,25,52,41,23,100,98,92,29.39,29.09,26,6,29,1.23
2013-1-31,25,19,15,24,17,14,95,92,84,30.00,29.39,26,11,28,0.65